Time;durP1;ratioP1;P1;durP2;ratioP2;P2;SDS_P1;SDS_P2;PMS_P1;PMS_P2;Temp;Humidity;BMP_temperature;BMP_pressure;BME280_temperature;BME280_humidity;BME280_pressure;Samples;Min_cycle;Max_cycle;Signal;HPM_P1;HPM_P2
2021/08/02 00:01:59;;;;;;;3.37;1.30;;;15.60;99.90;;;;;;5049514;28;20309;-82
2021/08/02 00:04:37;;;;;;;3.40;1.43;;;15.60;99.90;;;;;;5031920;28;20235;-81
2021/08/02 00:07:07;;;;;;;2.83;1.13;;;15.60;99.90;;;;;;5037087;28;20294;-81
2021/08/02 00:09:40;;;;;;;3.37;1.33;;;15.60;99.90;;;;;;5012307;28;20315;-81
2021/08/02 00:12:11;;;;;;;1.37;1.20;;;15.60;99.90;;;;;;5029633;28;20233;-81
2021/08/02 00:14:41;;;;;;;4.90;1.33;;;15.50;99.90;;;;;;5029271;28;20685;-81
2021/08/02 00:17:10;;;;;;;3.43;1.70;;;15.60;99.90;;;;;;5043063;28;20240;-81
2021/08/02 00:19:38;;;;;;;4.63;2.03;;;15.60;99.90;;;;;;5033151;28;20715;-82
2021/08/02 00:22:07;;;;;;;2.70;1.60;;;15.50;99.90;;;;;;5034176;28;20788;-81
2021/08/02 00:24:35;;;;;;;2.70;1.80;;;15.50;99.90;;;;;;5029729;28;20244;-81
2021/08/02 00:27:05;;;;;;;4.47;1.80;;;15.50;99.90;;;;;;5041947;28;20235;-81
2021/08/02 00:29:34;;;;;;;2.47;1.70;;;15.50;99.90;;;;;;5049335;28;20239;-81
2021/08/02 00:32:02;;;;;;;3.13;1.70;;;15.50;99.90;;;;;;5083131;28;20254;-81
2021/08/02 00:34:30;;;;;;;5.27;1.40;;;15.50;99.90;;;;;;5068792;28;20721;-81
2021/08/02 00:37:03;;;;;;;4.23;1.50;;;15.50;99.90;;;;;;5057271;28;20235;-81
2021/08/02 00:39:42;;;;;;;3.60;1.30;;;15.40;99.90;;;;;;5048246;28;20314;-81
2021/08/02 00:42:42;;;;;;;4.50;1.30;;;15.40;99.90;;;;;;5048655;28;20227;-81
2021/08/02 00:45:14;;;;;;;5.00;1.40;;;15.40;99.90;;;;;;5047542;28;20733;-81
2021/08/02 00:47:48;;;;;;;3.10;1.30;;;15.30;99.90;;;;;;5047620;28;20262;-81
2021/08/02 00:50:19;;;;;;;6.60;1.50;;;15.30;99.90;;;;;;5047900;28;20659;-81
2021/08/02 00:52:53;;;;;;;4.60;1.30;;;15.30;99.90;;;;;;5047960;28;20421;-81
2021/08/02 00:55:28;;;;;;;3.43;1.37;;;15.30;99.90;;;;;;5048671;28;20965;-81
2021/08/02 00:58:01;;;;;;;3.13;1.10;;;15.30;99.90;;;;;;5047605;28;20228;-81
2021/08/02 01:00:30;;;;;;;2.53;1.40;;;15.30;99.90;;;;;;5049127;28;20239;-82
2021/08/02 01:03:04;;;;;;;3.00;1.30;;;15.20;99.90;;;;;;5032280;28;20709;-81
2021/08/02 01:05:36;;;;;;;3.77;1.43;;;15.30;99.90;;;;;;5029303;28;20236;-81
2021/08/02 01:08:08;;;;;;;6.10;1.60;;;15.20;99.90;;;;;;5069172;28;20645;-81
2021/08/02 01:10:39;;;;;;;7.47;1.53;;;15.20;99.90;;;;;;5068502;28;20310;-81
2021/08/02 01:13:13;;;;;;;2.97;1.60;;;15.10;99.90;;;;;;5068528;28;20261;-82
2021/08/02 01:15:45;;;;;;;4.00;1.63;;;15.10;99.90;;;;;;5066800;28;20238;-81
2021/08/02 01:18:15;;;;;;;5.57;1.60;;;15.20;99.90;;;;;;5083863;28;20234;-81
2021/08/02 01:20:47;;;;;;;4.03;1.60;;;15.10;99.90;;;;;;5065189;28;20318;-81
2021/08/02 01:23:18;;;;;;;2.13;1.40;;;15.10;99.90;;;;;;5046654;28;20232;-81
2021/08/02 01:26:16;;;;;;;3.27;1.47;;;15.20;99.90;;;;;;5048571;28;20872;-82
2021/08/02 01:29:21;;;;;;;4.93;1.63;;;15.20;99.90;;;;;;5047986;28;20250;-82
2021/08/02 01:31:49;;;;;;;2.50;1.40;;;15.10;99.90;;;;;;5047339;28;20240;-81
2021/08/02 01:34:20;;;;;;;2.87;1.23;;;15.10;99.90;;;;;;5048093;28;20239;-81
2021/08/02 01:36:49;;;;;;;3.47;1.50;;;15.10;99.90;;;;;;5046367;28;20228;-81
2021/08/02 01:39:21;;;;;;;3.87;1.60;;;15.10;99.90;;;;;;5063795;28;20239;-80
2021/08/02 01:41:50;;;;;;;4.00;1.37;;;15.10;99.90;;;;;;5046526;28;20548;-81
2021/08/02 01:44:18;;;;;;;7.60;1.70;;;15.10;99.90;;;;;;5046674;28;20231;-80
2021/08/02 01:46:55;;;;;;;3.20;1.77;;;15.10;99.90;;;;;;5048266;28;20228;-81
2021/08/02 01:49:32;;;;;;;3.80;1.40;;;15.10;99.90;;;;;;5046679;28;20259;-81
2021/08/02 01:52:01;;;;;;;8.17;1.70;;;15.00;99.90;;;;;;5046183;28;20576;-81
2021/08/02 01:54:42;;;;;;;2.80;1.50;;;15.00;99.90;;;;;;5046599;28;20753;-81
2021/08/02 01:57:19;;;;;;;3.97;1.70;;;15.00;99.90;;;;;;5032396;28;20243;-81
2021/08/02 02:00:01;;;;;;;4.07;1.53;;;14.90;99.90;;;;;;5026361;28;20566;-81
2021/08/02 02:02:53;;;;;;;4.80;1.60;;;15.00;99.90;;;;;;5004357;28;20240;-80
2021/08/02 02:05:31;;;;;;;5.50;1.50;;;15.00;99.90;;;;;;4988939;28;20232;-81
2021/08/02 02:08:07;;;;;;;4.80;1.57;;;15.00;99.90;;;;;;5005058;28;20243;-81
2021/08/02 02:10:42;;;;;;;3.67;1.70;;;14.90;99.90;;;;;;4989033;28;20239;-81
2021/08/02 02:13:16;;;;;;;3.67;1.23;;;15.00;99.90;;;;;;5004667;28;20251;-81
2021/08/02 02:15:48;;;;;;;3.63;1.60;;;15.00;99.90;;;;;;4988528;28;20240;-81
2021/08/02 02:18:19;;;;;;;3.63;1.43;;;15.00;99.90;;;;;;4988945;28;20320;-81
2021/08/02 02:20:50;;;;;;;3.83;1.50;;;15.00;99.90;;;;;;5008880;28;20285;-81
2021/08/02 02:23:20;;;;;;;6.27;1.50;;;14.90;99.90;;;;;;5044418;28;20227;-81
2021/08/02 02:25:52;;;;;;;3.90;1.60;;;14.90;99.90;;;;;;5040449;28;20235;-81
2021/08/02 02:28:23;;;;;;;9.67;1.97;;;14.90;99.90;;;;;;5005849;28;20773;-81
2021/08/02 02:30:58;;;;;;;2.70;1.47;;;14.80;99.90;;;;;;4988324;28;20233;-82
2021/08/02 02:33:31;;;;;;;6.80;1.57;;;14.80;99.90;;;;;;5001243;28;20262;-81
2021/08/02 02:36:00;;;;;;;4.60;1.77;;;14.80;99.90;;;;;;5042456;28;20233;-81
2021/08/02 02:38:30;;;;;;;3.13;1.30;;;14.80;99.90;;;;;;5042864;28;20623;-81
2021/08/02 02:41:00;;;;;;;4.20;1.80;;;14.80;99.90;;;;;;5042469;28;20293;-81
2021/08/02 02:43:33;;;;;;;5.17;1.50;;;14.80;99.90;;;;;;5041981;28;20596;-81
2021/08/02 02:46:02;;;;;;;3.63;1.50;;;14.80;99.90;;;;;;5046717;28;20315;-81
2021/08/02 02:48:33;;;;;;;4.77;1.47;;;14.80;99.90;;;;;;5045848;28;20286;-81
2021/08/02 02:51:03;;;;;;;6.03;1.60;;;14.70;99.90;;;;;;5051056;28;20227;-81
2021/08/02 02:53:34;;;;;;;4.07;1.50;;;14.80;99.90;;;;;;5065810;28;20253;-81
2021/08/02 02:56:08;;;;;;;5.67;1.90;;;14.70;99.90;;;;;;5066820;28;20266;-81
2021/08/02 02:58:39;;;;;;;3.50;1.80;;;14.70;99.90;;;;;;5067646;28;20738;-80
2021/08/02 03:01:10;;;;;;;3.30;1.40;;;14.70;99.90;;;;;;5067272;28;20610;-81
2021/08/02 03:03:45;;;;;;;4.03;1.63;;;14.70;99.90;;;;;;5066376;28;20231;-81
2021/08/02 03:06:16;;;;;;;3.27;1.43;;;14.70;99.90;;;;;;5073275;28;20707;-81
2021/08/02 03:08:46;;;;;;;2.73;1.60;;;14.80;99.90;;;;;;5027970;28;20592;-82
2021/08/02 03:11:19;;;;;;;3.40;1.43;;;14.70;99.90;;;;;;5054644;28;20230;-81
2021/08/02 03:13:50;;;;;;;3.77;1.53;;;14.80;99.90;;;;;;5066413;28;20241;-81
2021/08/02 03:16:19;;;;;;;8.27;1.70;;;14.80;99.90;;;;;;5068546;28;20264;-81
2021/08/02 03:18:48;;;;;;;5.27;1.50;;;14.90;99.90;;;;;;5030121;28;20233;-81
2021/08/02 03:21:17;;;;;;;4.27;1.50;;;14.90;99.90;;;;;;5058507;28;20267;-81
2021/08/02 03:23:53;;;;;;;3.33;1.70;;;14.90;99.90;;;;;;5049274;28;20354;-81
2021/08/02 03:26:28;;;;;;;2.03;1.47;;;14.80;99.90;;;;;;5056403;28;20233;-80
2021/08/02 03:29:00;;;;;;;4.10;1.70;;;14.90;99.90;;;;;;5069857;28;20227;-81
2021/08/02 03:31:35;;;;;;;5.70;1.93;;;14.80;99.90;;;;;;5060764;28;20270;-81
2021/08/02 03:34:07;;;;;;;4.87;1.80;;;14.80;99.90;;;;;;5049517;28;20733;-81
2021/08/02 03:36:37;;;;;;;5.50;1.73;;;14.80;99.90;;;;;;5057966;28;20239;-81
2021/08/02 03:39:05;;;;;;;3.07;1.50;;;14.70;99.90;;;;;;5069391;28;20592;-81
2021/08/02 03:41:41;;;;;;;3.97;1.67;;;14.80;99.90;;;;;;5067098;28;20757;-81
2021/08/02 03:44:11;;;;;;;4.23;1.60;;;14.80;99.90;;;;;;5069167;28;20598;-81
2021/08/02 03:46:40;;;;;;;5.50;1.73;;;14.80;99.90;;;;;;5068718;28;20227;-81
2021/08/02 03:49:08;;;;;;;4.73;1.73;;;14.70;99.90;;;;;;5069568;28;20235;-81
2021/08/02 03:51:44;;;;;;;4.07;1.70;;;14.70;99.90;;;;;;5059822;28;20235;-81
2021/08/02 03:54:13;;;;;;;3.40;1.60;;;14.70;99.90;;;;;;5048649;28;20289;-81
2021/08/02 03:56:44;;;;;;;6.00;1.70;;;14.70;99.90;;;;;;5048607;28;20319;-81
2021/08/02 03:59:12;;;;;;;3.73;1.60;;;14.70;99.90;;;;;;5049319;28;20259;-81
2021/08/02 04:01:41;;;;;;;5.10;1.80;;;14.70;99.90;;;;;;5058193;28;20285;-81
2021/08/02 04:04:10;;;;;;;4.97;1.60;;;14.70;99.90;;;;;;5070171;28;20721;-81
2021/08/02 04:06:39;;;;;;;3.13;1.50;;;14.70;99.90;;;;;;5060739;28;20262;-81
2021/08/02 04:09:10;;;;;;;4.17;1.57;;;14.70;99.90;;;;;;5050195;28;20243;-80
2021/08/02 04:11:39;;;;;;;6.70;2.20;;;14.70;99.90;;;;;;5049661;28;20305;-81
2021/08/02 04:14:09;;;;;;;4.90;1.73;;;14.70;99.90;;;;;;5050029;28;20237;-81
2021/08/02 04:16:38;;;;;;;2.47;1.67;;;14.70;99.90;;;;;;5049809;28;20228;-81
2021/08/02 04:19:07;;;;;;;5.40;1.90;;;14.80;99.90;;;;;;5050455;28;20301;-81
2021/08/02 04:21:35;;;;;;;3.47;1.53;;;14.80;99.90;;;;;;5053992;28;20551;-81
2021/08/02 04:24:04;;;;;;;5.97;2.00;;;14.80;99.90;;;;;;5049360;28;20251;-80
2021/08/02 04:26:32;;;;;;;3.97;1.63;;;14.80;99.90;;;;;;5048065;28;20236;-81
2021/08/02 04:29:00;;;;;;;3.60;1.70;;;14.80;99.90;;;;;;5033268;28;20786;-81
2021/08/02 04:31:32;;;;;;;4.83;1.67;;;14.80;99.90;;;;;;5044646;28;20257;-81
2021/08/02 04:34:03;;;;;;;4.20;2.10;;;14.80;99.90;;;;;;5069368;28;20287;-81
2021/08/02 04:36:31;;;;;;;5.80;2.17;;;14.90;99.90;;;;;;5061047;28;20665;-81
2021/08/02 04:39:00;;;;;;;4.67;1.83;;;14.90;99.90;;;;;;5048195;28;20297;-82
2021/08/02 04:41:28;;;;;;;6.93;2.10;;;14.90;99.90;;;;;;5056820;28;20231;-82
2021/08/02 04:43:56;;;;;;;3.67;1.80;;;14.90;99.90;;;;;;5069834;28;20265;-81
2021/08/02 04:46:24;;;;;;;5.43;1.90;;;14.90;99.90;;;;;;5067611;28;20246;-82
2021/08/02 04:48:54;;;;;;;6.50;2.00;;;14.90;99.90;;;;;;5069415;28;20761;-82
2021/08/02 04:51:22;;;;;;;4.23;1.83;;;14.80;99.90;;;;;;5069430;28;20245;-82
2021/08/02 04:53:50;;;;;;;4.47;1.80;;;14.80;99.90;;;;;;5069302;28;20775;-82
2021/08/02 04:56:18;;;;;;;4.53;2.10;;;14.70;99.90;;;;;;5069166;28;20315;-82
2021/08/02 04:58:46;;;;;;;5.97;1.80;;;14.70;99.90;;;;;;5067917;28;20254;-82
2021/08/02 05:01:14;;;;;;;6.23;2.20;;;14.60;99.90;;;;;;5068503;28;20254;-82
2021/08/02 05:03:42;;;;;;;6.63;2.07;;;14.60;99.90;;;;;;5068858;28;20660;-81
2021/08/02 05:06:12;;;;;;;3.70;1.90;;;14.60;99.90;;;;;;5062699;28;20246;-81
2021/08/02 05:08:41;;;;;;;4.87;1.80;;;14.60;99.90;;;;;;5049225;28;20631;-81
2021/08/02 05:11:09;;;;;;;5.37;1.90;;;14.60;99.90;;;;;;5049114;28;20294;-81
2021/08/02 05:13:37;;;;;;;5.30;2.00;;;14.70;99.90;;;;;;5048420;28;20319;-82
2021/08/02 05:16:07;;;;;;;4.10;1.70;;;14.70;99.90;;;;;;5053065;28;20270;-82
2021/08/02 05:18:36;;;;;;;5.83;2.50;;;14.80;99.90;;;;;;5069065;28;20294;-82
2021/08/02 05:21:07;;;;;;;3.87;1.70;;;14.80;99.90;;;;;;5056407;28;20250;-81
2021/08/02 05:23:37;;;;;;;5.60;1.70;;;14.80;99.90;;;;;;5033041;28;20320;-82
2021/08/02 05:26:05;;;;;;;3.73;2.17;;;14.90;99.90;;;;;;5037482;28;20292;-82
2021/08/02 05:28:33;;;;;;;4.87;1.80;;;14.90;99.90;;;;;;5068548;28;20235;-81
2021/08/02 05:31:01;;;;;;;6.03;2.03;;;14.80;99.90;;;;;;5067747;28;20246;-81
2021/08/02 05:33:30;;;;;;;3.90;1.70;;;14.80;99.90;;;;;;5067847;28;20591;-81
2021/08/02 05:36:03;;;;;;;3.17;1.90;;;14.90;99.90;;;;;;5068321;28;20429;-81
2021/08/02 05:38:31;;;;;;;5.17;2.17;;;14.90;99.90;;;;;;5067991;28;20269;-81
2021/08/02 05:41:01;;;;;;;7.13;2.27;;;14.90;99.90;;;;;;5067761;28;20698;-81
2021/08/02 05:43:29;;;;;;;3.40;1.87;;;15.00;99.90;;;;;;5067843;28;20380;-81
2021/08/02 05:45:57;;;;;;;3.37;1.90;;;15.00;99.90;;;;;;5067976;28;20283;-81
2021/08/02 05:48:25;;;;;;;4.50;2.00;;;15.00;99.90;;;;;;5068202;28;20308;-81
2021/08/02 05:50:54;;;;;;;4.63;2.20;;;15.00;99.90;;;;;;5063425;28;20297;-82
2021/08/02 05:53:22;;;;;;;6.80;1.90;;;15.10;99.90;;;;;;5047573;28;20692;-82
2021/08/02 05:55:50;;;;;;;4.13;1.90;;;15.10;99.90;;;;;;5050293;28;20297;-82
2021/08/02 05:58:19;;;;;;;3.13;1.83;;;15.20;99.90;;;;;;5068189;28;20242;-82
2021/08/02 06:00:47;;;;;;;4.57;2.10;;;15.20;99.90;;;;;;5065686;28;20331;-81
2021/08/02 06:03:16;;;;;;;5.87;2.20;;;15.30;99.90;;;;;;5047810;28;20235;-81
2021/08/02 06:05:44;;;;;;;3.90;2.00;;;15.30;99.90;;;;;;5047733;28;20868;-82
2021/08/02 06:08:12;;;;;;;4.83;2.00;;;15.50;99.90;;;;;;5067694;28;20243;-82
2021/08/02 06:10:40;;;;;;;5.23;2.43;;;15.50;99.90;;;;;;5067989;28;20321;-81
2021/08/02 06:13:08;;;;;;;6.10;2.20;;;15.50;99.90;;;;;;5065847;28;20768;-82
2021/08/02 06:15:38;;;;;;;5.27;1.93;;;15.60;99.90;;;;;;5067433;28;20239;-82
2021/08/02 06:18:06;;;;;;;4.53;1.70;;;15.70;99.90;;;;;;5047433;28;20751;-81
2021/08/02 06:20:34;;;;;;;3.57;1.73;;;15.80;99.90;;;;;;5052788;28;20714;-82
2021/08/02 06:23:04;;;;;;;4.40;2.37;;;15.90;99.90;;;;;;5047173;28;20565;-82
2021/08/02 06:25:32;;;;;;;4.30;1.63;;;15.90;99.90;;;;;;5063042;28;20239;-82
2021/08/02 06:28:00;;;;;;;5.47;2.00;;;16.00;99.90;;;;;;5047557;28;20240;-82
2021/08/02 06:30:28;;;;;;;4.73;1.80;;;16.10;99.90;;;;;;5045683;28;20542;-81
2021/08/02 06:32:57;;;;;;;5.23;1.80;;;16.30;99.90;;;;;;5042629;28;20260;-82
2021/08/02 06:35:27;;;;;;;4.70;1.60;;;16.80;99.90;;;;;;5027421;28;20235;-81
2021/08/02 06:37:55;;;;;;;6.30;2.13;;;16.90;99.90;;;;;;5066562;28;20245;-81
2021/08/02 06:40:23;;;;;;;3.63;1.70;;;16.80;99.90;;;;;;5066247;28;20227;-82
2021/08/02 06:42:51;;;;;;;4.87;1.80;;;16.50;99.90;;;;;;5066759;28;20334;-81
2021/08/02 06:45:20;;;;;;;6.57;2.13;;;16.20;99.90;;;;;;5067392;28;20247;-82
2021/08/02 06:47:48;;;;;;;6.40;2.10;;;16.00;99.90;;;;;;5067233;28;20285;-82
2021/08/02 06:50:17;;;;;;;6.40;2.00;;;15.90;99.90;;;;;;5067492;28;20314;-82
2021/08/02 06:52:49;;;;;;;4.83;1.70;;;16.20;99.90;;;;;;5050718;28;20263;-82
2021/08/02 06:55:18;;;;;;;3.30;1.87;;;16.60;99.90;;;;;;5051703;28;20708;-81
2021/08/02 06:57:46;;;;;;;4.23;2.00;;;16.60;99.90;;;;;;5069022;28;20235;-82
2021/08/02 07:00:29;;;;;;;3.41;1.52;;;16.60;99.90;;;;;;3543728;28;10021686;-81
2021/08/02 07:02:58;;;;;;;6.43;1.67;;;16.40;99.90;;;;;;2970480;28;10001979;-82
2021/08/02 07:05:28;;;;;;;4.50;1.63;;;16.40;99.90;;;;;;5071254;28;21049;-81
2021/08/02 07:07:56;;;;;;;3.27;1.53;;;16.40;99.90;;;;;;5069649;28;20243;-82
2021/08/02 07:10:25;;;;;;;3.30;1.57;;;16.30;99.90;;;;;;5071070;28;20553;-81
2021/08/02 07:12:53;;;;;;;4.37;1.73;;;16.20;99.90;;;;;;5051364;28;20266;-82
2021/08/02 07:15:21;;;;;;;3.17;1.40;;;16.20;99.90;;;;;;5051323;28;20266;-82
2021/08/02 07:17:49;;;;;;;3.90;1.50;;;16.10;99.90;;;;;;5069830;28;20766;-82
2021/08/02 07:20:17;;;;;;;5.47;1.60;;;16.10;99.90;;;;;;5070954;28;20235;-82
2021/08/02 07:22:47;;;;;;;5.47;1.70;;;16.00;99.90;;;;;;5051681;28;20263;-82
2021/08/02 07:25:15;;;;;;;5.30;1.97;;;15.90;99.90;;;;;;5049414;28;20293;-82
2021/08/02 07:27:43;;;;;;;6.33;2.00;;;15.80;99.90;;;;;;5050633;28;20319;-82
2021/08/02 07:30:12;;;;;;;5.17;1.87;;;15.80;99.90;;;;;;5051103;28;20235;-81
2021/08/02 07:32:40;;;;;;;4.73;1.80;;;15.80;99.90;;;;;;5050423;28;20236;-82
2021/08/02 07:35:10;;;;;;;5.33;1.93;;;15.80;99.90;;;;;;5050924;28;20246;-82
2021/08/02 07:37:40;;;;;;;7.43;2.00;;;15.80;99.90;;;;;;5050408;28;20234;-81
2021/08/02 07:40:12;;;;;;;5.13;1.90;;;15.70;99.90;;;;;;5051318;28;20235;-82
2021/08/02 07:42:40;;;;;;;4.03;1.60;;;15.60;99.90;;;;;;5050070;28;20240;-82
2021/08/02 07:45:10;;;;;;;4.90;1.80;;;15.50;99.90;;;;;;5050706;28;20323;-82
2021/08/02 07:47:38;;;;;;;4.23;1.60;;;15.70;99.90;;;;;;5067273;28;20243;-82
2021/08/02 07:50:08;;;;;;;4.73;1.67;;;15.70;99.90;;;;;;5070761;28;20722;-82
2021/08/02 07:52:36;;;;;;;4.03;1.63;;;15.90;99.90;;;;;;5052955;28;20238;-82
2021/08/02 07:55:06;;;;;;;3.67;1.60;;;16.00;99.90;;;;;;5049080;28;20262;-82
2021/08/02 07:57:35;;;;;;;3.60;1.80;;;16.10;99.90;;;;;;5049957;28;20232;-82
2021/08/02 08:00:04;;;;;;;8.10;2.00;;;16.30;99.90;;;;;;5048819;28;20311;-82
2021/08/02 08:02:36;;;;;;;3.00;1.70;;;16.40;99.90;;;;;;5066112;28;20326;-82
2021/08/02 08:05:06;;;;;;;5.17;1.70;;;16.40;99.90;;;;;;5070035;28;20311;-82
2021/08/02 08:07:42;;;;;;;3.87;1.70;;;16.50;99.90;;;;;;5053059;28;20691;-82
2021/08/02 08:10:12;;;;;;;4.53;1.80;;;16.60;99.90;;;;;;5050386;28;20239;-82
2021/08/02 08:12:41;;;;;;;4.53;2.13;;;16.60;99.90;;;;;;5066798;28;20253;-82
2021/08/02 08:15:12;;;;;;;6.37;1.97;;;16.70;99.90;;;;;;5070116;28;20238;-82
2021/08/02 08:17:40;;;;;;;5.50;1.77;;;16.80;99.90;;;;;;5052657;28;20236;-82
2021/08/02 08:20:12;;;;;;;4.70;1.80;;;17.00;99.90;;;;;;5052248;28;20232;-82
2021/08/02 08:22:41;;;;;;;4.70;1.60;;;17.20;99.90;;;;;;5069591;28;20239;-82
2021/08/02 08:25:11;;;;;;;4.47;1.60;;;17.50;99.90;;;;;;5069958;28;20231;-82
2021/08/02 08:27:41;;;;;;;5.27;1.80;;;17.70;99.90;;;;;;5048813;28;20232;-82
2021/08/02 08:30:10;;;;;;;5.23;1.53;;;18.00;99.90;;;;;;5049771;28;20323;-82
2021/08/02 08:32:39;;;;;;;3.97;1.40;;;18.40;99.90;;;;;;5081821;28;20243;-82
2021/08/02 08:35:09;;;;;;;5.30;1.37;;;18.90;99.90;;;;;;5068255;28;20719;-82
2021/08/02 08:37:38;;;;;;;3.57;1.50;;;19.40;99.90;;;;;;5052103;28;20299;-82
2021/08/02 08:40:10;;;;;;;2.80;1.30;;;19.70;99.90;;;;;;5049925;28;20696;-82
2021/08/02 08:42:41;;;;;;;3.43;1.20;;;20.20;99.90;;;;;;5066461;28;20237;-82
2021/08/02 08:45:12;;;;;;;3.97;1.40;;;20.40;99.90;;;;;;5069597;28;20246;-82
2021/08/02 08:47:40;;;;;;;3.53;1.30;;;20.30;99.90;;;;;;5032589;28;20318;-82
2021/08/02 08:50:10;;;;;;;3.57;1.20;;;20.00;99.90;;;;;;5029652;28;20239;-82
2021/08/02 08:52:39;;;;;;;5.67;1.40;;;19.60;99.90;;;;;;5046279;28;20231;-82
2021/08/02 08:55:09;;;;;;;2.53;1.17;;;19.30;99.90;;;;;;5049570;28;20248;-82
2021/08/02 08:57:37;;;;;;;2.30;1.20;;;18.90;99.90;;;;;;5066135;28;20233;-82
2021/08/02 09:00:20;;;;;;;2.87;1.10;;;19.00;99.90;;;;;;5069288;28;20245;-83
2021/08/02 09:02:48;;;;;;;2.57;1.20;;;19.20;99.90;;;;;;5049598;28;20580;-82
2021/08/02 09:05:17;;;;;;;2.70;1.07;;;19.00;99.90;;;;;;5048904;28;20241;-82
2021/08/02 09:07:46;;;;;;;2.37;1.20;;;19.00;99.90;;;;;;5066947;28;20260;-82
2021/08/02 09:10:17;;;;;;;3.27;1.00;;;19.10;99.90;;;;;;5067640;28;20240;-82
2021/08/02 09:12:51;;;;;;;2.53;1.10;;;19.30;99.90;;;;;;5068378;28;20281;-82
2021/08/02 09:15:31;;;;;;;4.17;1.20;;;19.30;99.90;;;;;;5067690;28;20736;-82
2021/08/02 09:18:00;;;;;;;3.40;1.20;;;19.60;99.90;;;;;;5031152;28;20597;-82
2021/08/02 09:20:29;;;;;;;4.77;1.50;;;19.90;99.90;;;;;;5038337;28;20279;-83
2021/08/02 09:23:07;;;;;;;3.70;1.27;;;20.10;99.90;;;;;;5048419;28;20295;-82
2021/08/02 09:25:36;;;;;;;3.53;1.17;;;20.30;99.90;;;;;;5047025;28;20238;-83
2021/08/02 09:28:12;;;;;;;2.73;1.00;;;20.50;99.90;;;;;;5068526;28;20254;-82
2021/08/02 09:30:54;;;;;;;4.00;1.40;;;20.80;99.90;;;;;;5068298;28;20234;-83
2021/08/02 09:33:22;;;;;;;4.10;1.20;;;21.40;99.90;;;;;;5068039;28;20591;-83
2021/08/02 09:35:52;;;;;;;3.10;1.17;;;22.10;99.90;;;;;;5065866;28;20307;-82
2021/08/02 09:38:24;;;;;;;4.00;1.20;;;22.80;99.90;;;;;;5048319;28;20293;-82
2021/08/02 09:40:54;;;;;;;3.27;1.20;;;22.90;99.90;;;;;;5050980;28;20236;-83
2021/08/02 09:43:27;;;;;;;4.33;1.23;;;23.00;99.90;;;;;;5067906;28;20298;-82
2021/08/02 09:46:16;;;;;;;4.70;1.60;;;22.60;99.90;;;;;;5068205;28;20550;-82
2021/08/02 09:48:47;;;;;;;5.60;1.60;;;22.00;99.90;;;;;;5067839;28;20246;-82
2021/08/02 09:51:16;;;;;;;2.70;1.23;;;21.90;99.90;;;;;;5067955;28;20736;-82
2021/08/02 09:53:46;;;;;;;4.43;1.43;;;22.40;99.90;;;;;;5066260;28;20242;-82
2021/08/02 09:56:16;;;;;;;6.80;1.43;;;23.40;99.90;;;;;;5067787;28;20330;-83
2021/08/02 09:58:57;;;;;;;4.23;1.60;;;23.20;99.90;;;;;;5067762;28;20698;-83
2021/08/02 10:01:26;;;;;;;2.90;1.20;;;22.50;99.90;;;;;;5051912;28;20236;-82
2021/08/02 10:03:55;;;;;;;2.37;1.20;;;21.60;99.90;;;;;;5027936;28;20258;-82
2021/08/02 10:06:24;;;;;;;2.70;1.07;;;20.40;99.90;;;;;;5034615;28;20610;-82
2021/08/02 10:08:53;;;;;;;4.80;1.50;;;19.30;99.90;;;;;;5048046;28;20235;-83
2021/08/02 10:11:21;;;;;;;3.30;1.30;;;18.50;99.90;;;;;;5046026;28;20243;-82
2021/08/02 10:13:50;;;;;;;2.73;1.20;;;18.10;99.90;;;;;;5047257;28;20269;-82
2021/08/02 10:16:19;;;;;;;1.83;1.20;;;17.80;99.90;;;;;;5047457;28;20725;-82
2021/08/02 10:18:51;;;;;;;4.50;1.40;;;17.80;99.90;;;;;;5047653;28;20230;-82
2021/08/02 10:21:20;;;;;;;2.40;1.30;;;17.80;99.90;;;;;;5053531;28;20621;-82
2021/08/02 10:23:48;;;;;;;4.63;1.50;;;17.70;99.90;;;;;;5039906;28;20274;-82
2021/08/02 10:26:24;;;;;;;2.53;1.10;;;17.70;99.90;;;;;;5039713;28;20249;-82
2021/08/02 10:28:53;;;;;;;2.00;1.30;;;17.70;99.90;;;;;;5067769;28;20581;-82
2021/08/02 10:31:25;;;;;;;3.53;1.37;;;17.60;99.90;;;;;;5067118;28;20241;-82
2021/08/02 10:34:16;;;;;;;3.23;1.37;;;17.70;99.90;;;;;;5067486;28;20634;-82
2021/08/02 10:36:56;;;;;;;3.50;1.27;;;17.70;99.90;;;;;;5066945;28;20245;-82
2021/08/02 10:39:25;;;;;;;2.87;1.30;;;17.70;99.90;;;;;;5067629;28;20245;-82
2021/08/02 10:42:05;;;;;;;3.33;1.33;;;17.70;99.90;;;;;;5056189;28;20229;-82
2021/08/02 10:44:40;;;;;;;4.43;1.40;;;17.60;99.90;;;;;;5047473;28;20620;-82
2021/08/02 10:47:09;;;;;;;2.90;1.10;;;17.60;99.90;;;;;;5060120;28;20263;-82
2021/08/02 10:49:49;;;;;;;4.03;1.70;;;17.80;99.90;;;;;;5067656;28;20245;-82
2021/08/02 10:52:27;;;;;;;3.33;1.47;;;17.90;99.90;;;;;;5052204;28;20244;-82
2021/08/02 10:54:55;;;;;;;5.60;2.00;;;18.00;99.90;;;;;;5047567;28;20268;-82
2021/08/02 10:57:23;;;;;;;4.27;1.67;;;18.10;99.90;;;;;;5046816;28;20656;-82
2021/08/02 10:59:52;;;;;;;3.03;1.53;;;18.20;99.90;;;;;;5047628;28;20246;-82
2021/08/02 11:02:21;;;;;;;4.13;1.83;;;18.30;99.90;;;;;;5061313;28;20248;-82
2021/08/02 11:04:55;;;;;;;3.23;1.67;;;18.50;99.90;;;;;;5067113;28;20317;-82
2021/08/02 11:07:24;;;;;;;4.80;1.50;;;18.60;99.90;;;;;;5051701;28;20598;-82
2021/08/02 11:09:52;;;;;;;4.80;1.90;;;18.80;99.90;;;;;;5047074;28;20322;-82
2021/08/02 11:12:21;;;;;;;3.53;1.60;;;18.90;99.90;;;;;;5046243;28;20784;-82
2021/08/02 11:14:50;;;;;;;4.83;1.57;;;19.00;99.90;;;;;;5045753;28;20237;-82
2021/08/02 11:17:20;;;;;;;6.30;1.83;;;19.10;99.90;;;;;;5046612;28;20621;-82
2021/08/02 11:20:07;;;;;;;4.47;1.50;;;19.30;99.90;;;;;;5048449;28;20765;-82
2021/08/02 11:22:48;;;;;;;5.03;1.50;;;19.40;99.90;;;;;;5066140;28;20326;-82
2021/08/02 11:25:23;;;;;;;2.50;1.47;;;19.50;99.90;;;;;;5066971;28;20232;-82
2021/08/02 11:27:53;;;;;;;2.87;1.50;;;19.60;99.90;;;;;;5067019;28;20237;-82
2021/08/02 11:30:21;;;;;;;5.17;1.57;;;19.50;99.90;;;;;;5067066;28;20266;-82
2021/08/02 11:32:50;;;;;;;3.63;1.67;;;19.50;99.90;;;;;;5066051;28;20237;-83
2021/08/02 11:35:19;;;;;;;3.57;1.43;;;19.50;99.90;;;;;;5066864;28;20238;-82
2021/08/02 11:37:52;;;;;;;4.73;1.70;;;19.60;99.90;;;;;;5067689;28;20722;-82
2021/08/02 11:40:20;;;;;;;3.87;1.40;;;20.00;99.90;;;;;;5070839;28;20238;-82
2021/08/02 11:42:51;;;;;;;2.33;1.20;;;21.00;99.90;;;;;;5069839;28;20266;-82
2021/08/02 11:45:20;;;;;;;3.93;1.40;;;22.20;99.90;;;;;;5070318;28;20238;-83
2021/08/02 11:47:49;;;;;;;3.90;1.30;;;23.30;99.90;;;;;;5051405;28;20314;-82
2021/08/02 11:50:19;;;;;;;2.80;1.20;;;23.60;99.90;;;;;;5049500;28;20258;-83
2021/08/02 11:52:58;;;;;;;3.23;1.20;;;23.40;99.90;;;;;;5048831;28;20262;-83
2021/08/02 11:55:26;;;;;;;3.80;1.47;;;23.30;99.90;;;;;;5046858;28;20326;-83
2021/08/02 11:57:58;;;;;;;3.53;1.27;;;23.30;99.90;;;;;;5066947;28;20752;-83
2021/08/02 12:00:27;;;;;;;3.93;1.30;;;23.10;99.90;;;;;;5069189;28;20234;-84
2021/08/02 12:03:06;;;;;;;3.30;1.27;;;23.10;99.90;;;;;;5065958;28;20342;-83
2021/08/02 12:05:39;;;;;;;3.20;1.30;;;23.10;99.90;;;;;;5049012;28;20289;-84
2021/08/02 12:08:10;;;;;;;5.53;1.30;;;23.00;99.90;;;;;;5069767;28;20744;-83
2021/08/02 12:10:38;;;;;;;3.40;1.40;;;22.70;99.90;;;;;;5068392;28;20242;-83
2021/08/02 12:13:10;;;;;;;5.50;1.50;;;22.20;99.90;;;;;;5067732;28;20235;-83
2021/08/02 12:15:51;;;;;;;2.43;1.27;;;21.90;99.90;;;;;;5032889;28;20280;-83
2021/08/02 12:18:25;;;;;;;3.37;1.27;;;21.50;99.90;;;;;;5024854;28;20467;-83
2021/08/02 12:20:56;;;;;;;4.07;1.40;;;21.20;99.90;;;;;;5040558;28;20313;-83
2021/08/02 12:23:26;;;;;;;3.63;1.60;;;20.30;99.90;;;;;;5042475;28;20624;-83
2021/08/02 12:25:56;;;;;;;4.77;1.43;;;19.70;99.90;;;;;;5058663;28;20364;-83
2021/08/02 12:28:24;;;;;;;3.60;1.70;;;19.40;99.90;;;;;;5046890;28;20235;-83
2021/08/02 12:31:13;;;;;;;2.47;1.40;;;19.20;99.90;;;;;;5046213;28;20770;-83
2021/08/02 12:33:42;;;;;;;3.73;1.40;;;19.20;99.90;;;;;;5044163;28;20245;-82
2021/08/02 12:36:12;;;;;;;3.43;1.17;;;19.20;99.90;;;;;;5042878;28;20329;-83
2021/08/02 12:38:45;;;;;;;2.67;1.33;;;19.10;99.90;;;;;;5048927;28;20700;-83
2021/08/02 12:41:13;;;;;;;2.60;1.27;;;19.10;99.90;;;;;;5046122;28;20339;-82
2021/08/02 12:43:42;;;;;;;4.63;1.50;;;19.10;99.90;;;;;;5039649;28;20261;-82
2021/08/02 12:46:11;;;;;;;3.50;1.10;;;19.10;99.90;;;;;;5036186;28;20587;-83
2021/08/02 12:48:54;;;;;;;4.10;1.00;;;19.10;99.90;;;;;;5041405;28;20239;-82
2021/08/02 12:51:23;;;;;;;3.27;1.10;;;19.10;99.90;;;;;;5047270;28;20242;-83
2021/08/02 12:53:52;;;;;;;4.07;1.20;;;19.20;99.90;;;;;;5044591;28;20247;-82
2021/08/02 12:56:20;;;;;;;4.10;1.00;;;19.30;99.90;;;;;;5035652;28;20986;-82
2021/08/02 12:58:48;;;;;;;3.03;1.10;;;19.50;99.90;;;;;;5041137;28;20312;-83
2021/08/02 13:01:16;;;;;;;3.70;1.30;;;19.80;99.90;;;;;;5042297;28;20227;-82
2021/08/02 13:03:45;;;;;;;2.23;1.03;;;20.20;99.90;;;;;;5030113;28;20246;-82
2021/08/02 13:06:14;;;;;;;3.60;1.10;;;20.60;99.90;;;;;;5028607;28;20235;-84